createdAt,value
2022-11-29T00:00:10.257Z,-1.44
2022-11-29T00:03:34.570Z,-1.43
2022-11-29T00:06:56.721Z,-1.48
2022-11-29T00:10:19.000Z,-1.46
2022-11-29T00:13:41.253Z,-1.47
2022-11-29T00:17:04.525Z,-1.44
2022-11-29T00:20:27.711Z,-1.43
2022-11-29T00:23:49.668Z,-1.45
2022-11-29T00:27:11.943Z,-1.45
2022-11-29T00:30:33.952Z,-1.43
2022-11-29T00:33:57.299Z,-1.44
2022-11-29T00:37:20.467Z,-1.42
2022-11-29T00:40:42.080Z,-1.44
2022-11-29T00:44:03.563Z,-1.42
2022-11-29T00:47:25.510Z,-1.42
2022-11-29T00:50:47.566Z,-1.42
2022-11-29T00:54:11.039Z,-1.42
2022-11-29T00:57:32.898Z,-1.40
2022-11-29T01:00:55.758Z,-1.39
2022-11-29T01:04:17.443Z,-1.39
2022-11-29T01:07:39.054Z,-1.37
2022-11-29T01:11:08.298Z,-1.37
2022-11-29T01:14:29.966Z,-1.35
2022-11-29T01:17:51.877Z,-1.32
2022-11-29T01:21:16.271Z,-1.34
2022-11-29T01:24:37.821Z,-1.30
2022-11-29T01:28:01.293Z,-1.30
2022-11-29T01:31:25.354Z,-1.29
2022-11-29T01:34:47.070Z,-1.30
2022-11-29T01:38:09.033Z,-1.31
2022-11-29T01:41:33.343Z,-1.36
2022-11-29T01:45:08.065Z,-1.34
2022-11-29T01:48:34.031Z,-1.34
2022-11-29T01:52:00.646Z,-1.35
2022-11-29T01:55:25.025Z,-1.34
2022-11-29T01:58:47.689Z,-1.35
2022-11-29T02:02:15.240Z,-1.35
2022-11-29T02:05:39.396Z,-1.31
2022-11-29T02:09:01.360Z,-1.33
2022-11-29T02:12:36.257Z,-1.31
2022-11-29T02:16:05.057Z,-1.30
2022-11-29T02:19:53.653Z,-1.29
2022-11-29T02:24:02.954Z,-1.29
2022-11-29T02:27:59.889Z,-1.30
2022-11-29T02:32:19.027Z,-1.28
2022-11-29T02:36:03.334Z,-1.32
2022-11-29T02:40:09.829Z,-1.34
2022-11-29T02:43:53.404Z,-1.34
2022-11-29T02:47:28.406Z,-1.33
2022-11-29T02:50:56.405Z,-1.31
2022-11-29T02:54:27.766Z,-1.30
2022-11-29T02:57:58.841Z,-1.30
2022-11-29T03:01:28.291Z,-1.26
2022-11-29T03:05:00.174Z,-1.25
2022-11-29T03:08:33.260Z,-1.25
2022-11-29T03:12:04.349Z,-1.25
2022-11-29T03:15:32.526Z,-1.22
2022-11-29T03:19:06.077Z,-1.31
2022-11-29T03:22:43.139Z,-1.26
2022-11-29T03:26:10.162Z,-1.24
2022-11-29T03:29:39.351Z,-1.24
2022-11-29T03:33:10.976Z,-1.30
2022-11-29T03:36:42.441Z,-1.25
2022-11-29T03:40:10.280Z,-1.22
2022-11-29T03:43:40.746Z,-1.24
2022-11-29T03:47:10.218Z,-1.23
2022-11-29T03:50:36.385Z,-1.24
2022-11-29T03:54:03.788Z,-1.20
2022-11-29T03:57:35.815Z,-1.21
2022-11-29T04:01:24.163Z,-1.25
2022-11-29T04:05:28.527Z,-1.19
2022-11-29T04:09:04.425Z,-1.17
2022-11-29T04:13:04.432Z,-1.17
2022-11-29T04:17:02.534Z,-1.18
2022-11-29T04:21:14.785Z,-1.16
2022-11-29T04:25:07.490Z,-1.14
2022-11-29T04:28:54.522Z,-1.14
2022-11-29T04:32:43.656Z,-1.15
2022-11-29T04:36:15.488Z,-1.13
2022-11-29T04:40:09.459Z,-1.17
2022-11-29T04:44:03.248Z,-1.17
2022-11-29T04:47:47.230Z,-1.13
2022-11-29T04:51:18.614Z,-1.14
2022-11-29T04:54:49.131Z,-1.14
2022-11-29T04:58:18.255Z,-1.13
2022-11-29T05:01:54.292Z,-1.13
2022-11-29T05:05:28.652Z,-1.11
2022-11-29T05:09:01.032Z,-1.09
2022-11-29T05:12:31.114Z,-1.09
2022-11-29T05:16:19.882Z,-1.08
2022-11-29T05:20:03.009Z,-1.07
2022-11-29T05:23:38.644Z,-1.13
2022-11-29T05:27:14.653Z,-1.08
2022-11-29T05:30:55.805Z,-1.06
2022-11-29T05:34:38.033Z,-1.08
2022-11-29T05:38:08.524Z,-1.06
2022-11-29T05:41:58.069Z,-1.07
2022-11-29T05:45:26.923Z,-1.06
2022-11-29T05:48:58.985Z,-1.08
2022-11-29T05:52:25.690Z,-1.14
2022-11-29T05:55:57.816Z,-1.06
2022-11-29T05:59:23.451Z,-1.06
2022-11-29T06:02:55.274Z,-1.04
2022-11-29T06:06:24.106Z,-1.06
2022-11-29T06:09:52.338Z,-1.05
2022-11-29T06:13:23.157Z,-1.06
2022-11-29T06:17:03.954Z,-1.06
2022-11-29T06:20:43.513Z,-1.08
2022-11-29T06:24:31.022Z,-1.14
2022-11-29T06:28:10.595Z,-1.08
2022-11-29T06:31:40.874Z,-1.07
2022-11-29T06:35:10.572Z,-1.05
2022-11-29T06:38:32.962Z,-1.03
2022-11-29T06:41:55.224Z,-1.03
2022-11-29T06:45:18.098Z,-1.03
2022-11-29T06:48:48.899Z,-1.07
2022-11-29T06:52:22.353Z,-1.03
2022-11-29T06:55:53.995Z,-1.05
2022-11-29T06:59:35.834Z,-1.04
2022-11-29T07:03:40.141Z,-1.02
2022-11-29T07:07:03.978Z,-1.01
2022-11-29T07:10:28.117Z,-1.03
2022-11-29T07:13:51.217Z,-0.95
2022-11-29T07:17:20.660Z,-0.93
2022-11-29T07:20:51.598Z,-0.90
2022-11-29T07:24:31.053Z,-0.90
2022-11-29T07:28:03.535Z,-0.89
2022-11-29T07:31:40.210Z,-0.95
2022-11-29T07:35:09.586Z,-0.84
2022-11-29T07:38:52.618Z,-0.85
2022-11-29T07:42:24.457Z,-0.82
2022-11-29T07:45:47.131Z,-0.77
2022-11-29T07:49:11.633Z,-0.75
2022-11-29T07:52:34.555Z,-0.73
2022-11-29T07:55:56.365Z,-0.72
2022-11-29T07:59:20.242Z,-0.71
2022-11-29T08:02:42.927Z,-0.70
2022-11-29T08:06:05.160Z,-0.65
2022-11-29T08:09:26.924Z,-0.66
2022-11-29T08:12:51.683Z,-0.64
2022-11-29T08:16:18.978Z,-0.59
2022-11-29T08:19:41.181Z,-0.55
2022-11-29T08:23:03.599Z,-0.56
2022-11-29T08:26:31.249Z,-0.54
2022-11-29T08:29:53.270Z,-0.52
2022-11-29T08:33:16.546Z,-0.54
2022-11-29T08:36:38.448Z,-0.52
2022-11-29T08:40:00.334Z,-0.48
2022-11-29T08:43:22.191Z,-0.49
2022-11-29T08:47:01.581Z,-0.44
2022-11-29T08:50:25.754Z,-0.40
2022-11-29T08:53:51.764Z,-0.46
2022-11-29T09:00:55.839Z,-0.38
2022-11-29T09:04:17.858Z,-0.33
2022-11-29T09:07:41.412Z,-0.31
2022-11-29T09:11:09.244Z,-0.27
2022-11-29T09:14:31.380Z,-0.27
2022-11-29T09:17:53.577Z,-0.27
2022-11-29T09:21:15.676Z,-0.27
2022-11-29T09:24:39.206Z,-0.21
2022-11-29T09:28:03.211Z,-0.17
2022-11-29T09:31:27.247Z,-0.16
2022-11-29T09:34:49.192Z,-0.13
2022-11-29T09:38:12.734Z,-0.08
2022-11-29T09:41:51.017Z,-0.06
2022-11-29T09:45:18.628Z,-0.06
2022-11-29T09:49:03.019Z,-0.05
2022-11-29T09:52:35.640Z,-0.03
2022-11-29T09:56:11.719Z,0.02
2022-11-29T09:59:39.580Z,0.05
2022-11-29T10:03:11.192Z,0.05
2022-11-29T10:06:38.955Z,0.06
2022-11-29T10:10:05.728Z,0.01
2022-11-29T10:13:32.100Z,-0.04
2022-11-29T10:17:04.220Z,0.02
2022-11-29T10:20:28.697Z,0.04
2022-11-29T10:23:55.362Z,0.07
2022-11-29T10:27:21.409Z,0.12
2022-11-29T10:30:44.930Z,0.10
2022-11-29T10:34:14.830Z,0.07
2022-11-29T10:37:36.950Z,0.07
2022-11-29T10:41:04.350Z,0.05
2022-11-29T10:44:26.752Z,0.04
2022-11-29T10:47:51.058Z,0.05
2022-11-29T10:51:19.617Z,0.01
2022-11-29T10:54:48.105Z,0.02
2022-11-29T10:58:14.255Z,0.02
2022-11-29T11:01:42.395Z,0.01
2022-11-29T11:05:05.863Z,0.01
2022-11-29T11:08:29.851Z,0.01
2022-11-29T11:11:53.306Z,-0.07
2022-11-29T11:15:27.110Z,-0.11
2022-11-29T11:18:49.821Z,-0.06
2022-11-29T11:22:22.532Z,-0.07
2022-11-29T11:25:50.138Z,-0.03
2022-11-29T11:29:20.018Z,-0.08
2022-11-29T11:32:41.913Z,-0.07
2022-11-29T11:36:07.097Z,-0.05
2022-11-29T11:39:33.641Z,-0.10
2022-11-29T11:42:59.087Z,-0.08
2022-11-29T11:46:22.082Z,-0.10
2022-11-29T11:49:50.413Z,-0.11
2022-11-29T11:53:22.614Z,-0.11
2022-11-29T11:56:44.911Z,-0.14
2022-11-29T12:01:06.041Z,-0.15
2022-11-29T12:04:36.723Z,-0.17
2022-11-29T12:08:10.032Z,-0.16
2022-11-29T12:11:38.756Z,-0.18
2022-11-29T12:15:03.529Z,-0.18
2022-11-29T12:18:35.299Z,-0.16
2022-11-29T12:22:04.298Z,-0.17
2022-11-29T12:25:34.946Z,-0.19
2022-11-29T12:28:57.062Z,-0.22
2022-11-29T12:32:44.641Z,-0.25
2022-11-29T12:36:23.318Z,-0.25
2022-11-29T12:39:53.671Z,-0.24
2022-11-29T12:43:32.604Z,-0.22
2022-11-29T12:51:06.596Z,-0.19
2022-11-29T12:54:45.769Z,-0.19
2022-11-29T12:58:12.101Z,-0.26
2022-11-29T13:01:56.567Z,-0.33
2022-11-29T13:05:30.038Z,-0.37
2022-11-29T13:09:27.280Z,-0.40
2022-11-29T13:12:54.605Z,-0.41
2022-11-29T13:16:33.469Z,-0.42
2022-11-29T13:19:58.329Z,-0.43
2022-11-29T13:23:45.603Z,-0.43
2022-11-29T13:27:12.834Z,-0.44
2022-11-29T13:30:37.298Z,-0.47
2022-11-29T13:34:05.315Z,-0.48
2022-11-29T13:37:35.499Z,-0.53
2022-11-29T13:41:02.882Z,-0.54
2022-11-29T13:44:34.003Z,-0.51
2022-11-29T13:48:02.039Z,-0.54
2022-11-29T13:51:34.179Z,-0.51
2022-11-29T13:55:11.253Z,-0.54
2022-11-29T13:58:39.229Z,-0.57
2022-11-29T14:02:01.620Z,-0.59
2022-11-29T14:05:29.569Z,-0.63
2022-11-29T14:09:19.559Z,-0.69
2022-11-29T14:12:50.381Z,-0.67
2022-11-29T14:16:19.860Z,-0.67
2022-11-29T14:19:42.052Z,-0.66
2022-11-29T14:23:36.560Z,-0.68
2022-11-29T14:27:41.116Z,-0.70
2022-11-29T14:31:04.450Z,-0.76
2022-11-29T14:34:43.275Z,-0.72
2022-11-29T14:38:13.023Z,-0.72
2022-11-29T14:41:53.654Z,-0.72
2022-11-29T14:45:24.708Z,-0.75
2022-11-29T14:49:00.782Z,-0.73
2022-11-29T14:52:31.820Z,-0.74
2022-11-29T14:56:43.947Z,-0.77
2022-11-29T15:00:12.707Z,-0.77
2022-11-29T15:03:38.704Z,-0.78
2022-11-29T15:07:01.653Z,-0.78
2022-11-29T15:10:26.917Z,-0.89
2022-11-29T15:13:58.676Z,-0.78
2022-11-29T15:17:32.622Z,-0.79
2022-11-29T15:21:07.353Z,-0.78
2022-11-29T15:24:29.493Z,-0.79
2022-11-29T15:27:53.405Z,-0.81
2022-11-29T15:31:19.389Z,-0.81
2022-11-29T15:34:50.423Z,-0.82
2022-11-29T15:38:21.952Z,-0.81
2022-11-29T15:41:44.327Z,-0.81
2022-11-29T15:45:27.678Z,-0.84
2022-11-29T15:48:50.169Z,-0.83
2022-11-29T15:52:20.890Z,-0.82
2022-11-29T15:55:43.874Z,-0.84
2022-11-29T15:59:14.042Z,-0.89
2022-11-29T16:02:39.607Z,-0.88
2022-11-29T16:06:07.368Z,-0.90
2022-11-29T16:09:35.835Z,-0.89
2022-11-29T16:13:00.173Z,-0.89
2022-11-29T16:16:23.894Z,-0.97
2022-11-29T16:19:47.101Z,-0.89
2022-11-29T16:23:14.409Z,-0.92
2022-11-29T16:26:41.116Z,-0.89
2022-11-29T16:30:03.782Z,-0.90
2022-11-29T16:33:25.974Z,-0.93
2022-11-29T16:36:47.736Z,-0.92
2022-11-29T16:40:22.257Z,-0.92
2022-11-29T16:43:55.506Z,-0.92
2022-11-29T16:47:20.181Z,-0.88
2022-11-29T16:50:42.166Z,-0.88
2022-11-29T16:54:25.305Z,-0.88
2022-11-29T16:57:48.675Z,-0.92
2022-11-29T17:01:19.081Z,-0.86
2022-11-29T17:04:41.222Z,-0.86
2022-11-29T17:08:03.069Z,-0.90
2022-11-29T17:11:25.268Z,-0.95
2022-11-29T17:14:47.468Z,-0.95
2022-11-29T17:18:10.799Z,-0.91
2022-11-29T17:21:33.010Z,-0.93
2022-11-29T17:24:55.074Z,-0.93
2022-11-29T17:28:17.073Z,-0.94
2022-11-29T17:31:39.535Z,-0.97
2022-11-29T17:35:03.456Z,-0.99
2022-11-29T17:38:25.406Z,-0.98
2022-11-29T17:41:47.803Z,-0.96
2022-11-29T17:45:10.476Z,-0.98
2022-11-29T17:48:33.730Z,-0.99
2022-11-29T17:51:57.074Z,-1.03
2022-11-29T17:55:20.765Z,-1.05
2022-11-29T17:58:43.629Z,-1.04
2022-11-29T18:02:05.424Z,-1.02
2022-11-29T18:05:34.160Z,-1.03
2022-11-29T18:08:59.049Z,-1.02
2022-11-29T18:12:22.577Z,-1.04
2022-11-29T18:15:44.394Z,-1.06
2022-11-29T18:19:08.416Z,-1.05
2022-11-29T18:22:30.216Z,-1.07
2022-11-29T18:25:58.762Z,-1.09
2022-11-29T18:29:20.734Z,-1.10
2022-11-29T18:32:43.079Z,-1.10
2022-11-29T18:36:06.552Z,-1.11
2022-11-29T18:39:29.726Z,-1.12
2022-11-29T18:42:52.775Z,-1.11
2022-11-29T18:46:18.031Z,-1.11
2022-11-29T18:49:39.886Z,-1.11
2022-11-29T18:53:01.942Z,-1.11
2022-11-29T18:56:25.827Z,-1.16
2022-11-29T18:59:49.223Z,-1.13
2022-11-29T19:03:11.310Z,-1.13
2022-11-29T19:06:39.314Z,-1.13
2022-11-29T19:10:01.767Z,-1.14
2022-11-29T19:13:24.044Z,-1.15
2022-11-29T19:16:49.300Z,-1.14
2022-11-29T19:20:12.997Z,-1.18
2022-11-29T19:23:35.226Z,-1.19
2022-11-29T19:26:57.412Z,-1.19
2022-11-29T19:30:19.218Z,-1.20
2022-11-29T19:33:44.860Z,-1.20
2022-11-29T19:37:09.429Z,-1.19
2022-11-29T19:40:31.970Z,-1.20
2022-11-29T19:43:54.537Z,-1.22
2022-11-29T19:47:16.743Z,-1.21
2022-11-29T19:50:40.303Z,-1.24
2022-11-29T19:54:03.677Z,-1.24
2022-11-29T19:57:25.457Z,-1.21
2022-11-29T20:00:47.872Z,-1.19
2022-11-29T20:04:10.945Z,-1.20
2022-11-29T20:07:34.361Z,-1.22
2022-11-29T20:10:56.822Z,-1.19
2022-11-29T20:14:19.370Z,-1.20
2022-11-29T20:17:41.499Z,-1.20
2022-11-29T20:21:07.489Z,-1.19
2022-11-29T20:24:36.606Z,-1.20
2022-11-29T20:28:01.171Z,-1.22
2022-11-29T20:31:23.505Z,-1.22
2022-11-29T20:34:45.964Z,-1.22
2022-11-29T20:38:20.229Z,-1.22
2022-11-29T20:41:55.214Z,-1.24
2022-11-29T20:45:18.219Z,-1.24
2022-11-29T20:48:40.729Z,-1.24
2022-11-29T20:52:06.706Z,-1.25
2022-11-29T20:55:28.575Z,-1.27
2022-11-29T20:58:52.239Z,-1.27
2022-11-29T21:02:14.150Z,-1.27
2022-11-29T21:05:38.783Z,-1.35
2022-11-29T21:09:00.732Z,-1.34
2022-11-29T21:12:22.906Z,-1.32
2022-11-29T21:15:47.551Z,-1.36
2022-11-29T21:19:19.852Z,-1.34
2022-11-29T21:22:54.070Z,-1.37
2022-11-29T21:26:21.576Z,-1.38
2022-11-29T21:29:43.972Z,-1.38
2022-11-29T21:33:08.107Z,-1.39
2022-11-29T21:36:30.507Z,-1.39
2022-11-29T21:39:52.960Z,-1.46
2022-11-29T21:43:17.082Z,-1.47
2022-11-29T21:46:38.847Z,-1.43
2022-11-29T21:50:02.324Z,-1.44
2022-11-29T21:53:24.447Z,-1.45
2022-11-29T21:56:46.302Z,-1.44
2022-11-29T22:00:09.707Z,-1.46
2022-11-29T22:03:31.641Z,-1.45
2022-11-29T22:06:55.342Z,-1.44
2022-11-29T22:10:17.396Z,-1.43
2022-11-29T22:14:01.166Z,-1.44
2022-11-29T22:17:23.094Z,-1.47
2022-11-29T22:20:47.330Z,-1.46
2022-11-29T22:24:11.589Z,-1.49
2022-11-29T22:27:33.599Z,-1.49
2022-11-29T22:31:01.843Z,-1.52
2022-11-29T22:34:25.280Z,-1.54
2022-11-29T22:37:47.335Z,-1.59
2022-11-29T22:41:13.031Z,-1.59
2022-11-29T22:44:35.235Z,-1.59
2022-11-29T22:47:56.923Z,-1.58
2022-11-29T22:51:20.319Z,-1.59
2022-11-29T22:54:42.354Z,-1.62
2022-11-29T22:58:05.671Z,-1.64
2022-11-29T23:01:28.977Z,-1.59
2022-11-29T23:04:50.759Z,-1.57
2022-11-29T23:08:12.277Z,-1.55
2022-11-29T23:11:34.333Z,-1.56
2022-11-29T23:14:58.107Z,-1.55
2022-11-29T23:18:20.538Z,-1.55
2022-11-29T23:21:44.768Z,-1.55
2022-11-29T23:25:07.667Z,-1.55
2022-11-29T23:28:30.503Z,-1.61
2022-11-29T23:31:53.748Z,-1.56
2022-11-29T23:35:15.690Z,-1.56
2022-11-29T23:38:39.225Z,-1.58
2022-11-29T23:42:01.405Z,-1.56
2022-11-29T23:45:23.504Z,-1.61
2022-11-29T23:48:47.221Z,-1.58
2022-11-29T23:52:08.973Z,-1.58
2022-11-29T23:55:30.653Z,-1.60
2022-11-29T23:58:52.340Z,-1.59
